Terminal Aerodrome Forecast
Issued by NWS Charleston, WV

Home | Current Version | Previous Version | Text Only | Print | Product List | Glossary On
Versions: 1 2 3 4 5 6 7 8 9 10 11 12 13 14 15 16 17 18 19 20 21 22 23 24 25 26 27 28 29 30 31 32
000
FTUS41 KRLX 250800 AAA
TAFBKW
TAF AMD
KBKW 250828Z 2508/2606 18004KT P6SM SCT250
     FM251600 27006KT P6SM SCT250
     FM252000 27008KT P6SM BKN040
     FM260200 28011G21KT P6SM BKN025
     FM260400 28008G13KT P6SM BKN025=

USA.gov is the U.S. government's official web portal to all federal, state and local government web resources and services.